sensor_id;sensor_type;location;lat;lon;timestamp;P1;durP1;ratioP1;P2;durP2;ratioP2
39518;SDS011;25200;53.394;10.414;2023-04-25T00:00:33;7.45;;;3.13;;
39518;SDS011;25200;53.394;10.414;2023-04-25T00:02:59;8.13;;;3.10;;
39518;SDS011;25200;53.394;10.414;2023-04-25T00:05:25;8.93;;;3.40;;
39518;SDS011;25200;53.394;10.414;2023-04-25T00:07:51;8.18;;;3.58;;
39518;SDS011;25200;53.394;10.414;2023-04-25T00:10:18;7.57;;;3.03;;
39518;SDS011;25200;53.394;10.414;2023-04-25T00:12:45;8.80;;;3.28;;
39518;SDS011;25200;53.394;10.414;2023-04-25T00:15:11;7.50;;;3.42;;
39518;SDS011;25200;53.394;10.414;2023-04-25T00:17:37;6.72;;;2.45;;
39518;SDS011;25200;53.394;10.414;2023-04-25T00:20:03;6.68;;;3.20;;
39518;SDS011;25200;53.394;10.414;2023-04-25T00:22:30;6.93;;;3.15;;
39518;SDS011;25200;53.394;10.414;2023-04-25T00:24:56;6.97;;;2.85;;
39518;SDS011;25200;53.394;10.414;2023-04-25T00:27:25;7.28;;;2.90;;
39518;SDS011;25200;53.394;10.414;2023-04-25T00:29:51;10.18;;;3.30;;
39518;SDS011;25200;53.394;10.414;2023-04-25T00:32:16;5.93;;;2.83;;
39518;SDS011;25200;53.394;10.414;2023-04-25T00:34:42;6.80;;;3.08;;
39518;SDS011;25200;53.394;10.414;2023-04-25T00:37:08;7.57;;;2.95;;
39518;SDS011;25200;53.394;10.414;2023-04-25T00:39:33;6.15;;;2.90;;
39518;SDS011;25200;53.394;10.414;2023-04-25T00:41:59;6.38;;;2.83;;
39518;SDS011;25200;53.394;10.414;2023-04-25T00:44:26;5.97;;;3.00;;
39518;SDS011;25200;53.394;10.414;2023-04-25T00:46:54;4.88;;;2.65;;
39518;SDS011;25200;53.394;10.414;2023-04-25T00:49:20;6.10;;;2.95;;
39518;SDS011;25200;53.394;10.414;2023-04-25T00:51:46;8.05;;;2.88;;
39518;SDS011;25200;53.394;10.414;2023-04-25T00:54:12;9.15;;;2.80;;
39518;SDS011;25200;53.394;10.414;2023-04-25T00:56:38;8.73;;;3.10;;
39518;SDS011;25200;53.394;10.414;2023-04-25T00:59:04;5.85;;;2.75;;
39518;SDS011;25200;53.394;10.414;2023-04-25T01:01:30;8.43;;;3.08;;
39518;SDS011;25200;53.394;10.414;2023-04-25T01:03:56;7.93;;;2.80;;
39518;SDS011;25200;53.394;10.414;2023-04-25T01:06:23;5.80;;;2.38;;
39518;SDS011;25200;53.394;10.414;2023-04-25T01:08:49;8.05;;;2.80;;
39518;SDS011;25200;53.394;10.414;2023-04-25T01:11:16;8.52;;;2.63;;
39518;SDS011;25200;53.394;10.414;2023-04-25T01:13:42;6.70;;;2.22;;
39518;SDS011;25200;53.394;10.414;2023-04-25T01:16:08;8.32;;;2.67;;
39518;SDS011;25200;53.394;10.414;2023-04-25T01:18:34;9.50;;;2.72;;
39518;SDS011;25200;53.394;10.414;2023-04-25T01:21:10;7.53;;;2.90;;
39518;SDS011;25200;53.394;10.414;2023-04-25T01:23:40;9.13;;;2.70;;
39518;SDS011;25200;53.394;10.414;2023-04-25T01:26:08;10.02;;;2.42;;
39518;SDS011;25200;53.394;10.414;2023-04-25T01:28:34;7.18;;;2.40;;
39518;SDS011;25200;53.394;10.414;2023-04-25T01:31:01;12.38;;;2.75;;
39518;SDS011;25200;53.394;10.414;2023-04-25T01:33:27;13.38;;;2.90;;
39518;SDS011;25200;53.394;10.414;2023-04-25T01:35:52;12.80;;;2.55;;
39518;SDS011;25200;53.394;10.414;2023-04-25T01:38:18;14.82;;;2.65;;
39518;SDS011;25200;53.394;10.414;2023-04-25T01:40:44;11.65;;;2.72;;
39518;SDS011;25200;53.394;10.414;2023-04-25T01:43:11;10.52;;;2.63;;
39518;SDS011;25200;53.394;10.414;2023-04-25T01:45:39;10.20;;;2.65;;
39518;SDS011;25200;53.394;10.414;2023-04-25T01:48:06;19.60;;;3.33;;
39518;SDS011;25200;53.394;10.414;2023-04-25T01:50:33;12.63;;;2.53;;
39518;SDS011;25200;53.394;10.414;2023-04-25T01:52:59;20.08;;;2.75;;
39518;SDS011;25200;53.394;10.414;2023-04-25T01:55:26;14.50;;;3.03;;
39518;SDS011;25200;53.394;10.414;2023-04-25T01:57:52;13.73;;;2.67;;
39518;SDS011;25200;53.394;10.414;2023-04-25T02:00:18;24.30;;;3.40;;
39518;SDS011;25200;53.394;10.414;2023-04-25T02:02:44;18.90;;;3.88;;
39518;SDS011;25200;53.394;10.414;2023-04-25T02:05:09;20.67;;;3.83;;
39518;SDS011;25200;53.394;10.414;2023-04-25T02:07:35;15.48;;;3.25;;
39518;SDS011;25200;53.394;10.414;2023-04-25T02:10:01;16.70;;;3.25;;
39518;SDS011;25200;53.394;10.414;2023-04-25T02:12:27;20.40;;;3.50;;
39518;SDS011;25200;53.394;10.414;2023-04-25T02:14:53;20.40;;;3.67;;
39518;SDS011;25200;53.394;10.414;2023-04-25T02:17:19;25.67;;;4.00;;
39518;SDS011;25200;53.394;10.414;2023-04-25T02:19:46;17.17;;;3.25;;
39518;SDS011;25200;53.394;10.414;2023-04-25T02:22:12;18.35;;;3.30;;
39518;SDS011;25200;53.394;10.414;2023-04-25T02:24:37;14.95;;;3.42;;
39518;SDS011;25200;53.394;10.414;2023-04-25T02:27:03;18.50;;;3.88;;
39518;SDS011;25200;53.394;10.414;2023-04-25T02:29:29;15.35;;;3.10;;
39518;SDS011;25200;53.394;10.414;2023-04-25T02:31:55;16.67;;;3.33;;
39518;SDS011;25200;53.394;10.414;2023-04-25T02:34:21;18.08;;;3.05;;
39518;SDS011;25200;53.394;10.414;2023-04-25T02:36:47;15.18;;;2.80;;
39518;SDS011;25200;53.394;10.414;2023-04-25T02:39:15;14.88;;;2.67;;
39518;SDS011;25200;53.394;10.414;2023-04-25T02:41:41;16.75;;;3.08;;
39518;SDS011;25200;53.394;10.414;2023-04-25T02:44:07;18.08;;;3.22;;
39518;SDS011;25200;53.394;10.414;2023-04-25T02:46:33;15.65;;;2.80;;
39518;SDS011;25200;53.394;10.414;2023-04-25T02:48:58;21.27;;;3.47;;
39518;SDS011;25200;53.394;10.414;2023-04-25T02:51:24;13.40;;;3.65;;
39518;SDS011;25200;53.394;10.414;2023-04-25T02:53:51;19.73;;;3.78;;
39518;SDS011;25200;53.394;10.414;2023-04-25T02:56:16;16.25;;;3.17;;
39518;SDS011;25200;53.394;10.414;2023-04-25T02:58:42;19.38;;;2.97;;
39518;SDS011;25200;53.394;10.414;2023-04-25T03:01:10;16.10;;;3.30;;
39518;SDS011;25200;53.394;10.414;2023-04-25T03:03:35;12.38;;;2.90;;
39518;SDS011;25200;53.394;10.414;2023-04-25T03:06:01;22.98;;;3.30;;
39518;SDS011;25200;53.394;10.414;2023-04-25T03:08:27;19.08;;;3.08;;
39518;SDS011;25200;53.394;10.414;2023-04-25T03:10:57;28.23;;;4.00;;
39518;SDS011;25200;53.394;10.414;2023-04-25T03:13:23;12.65;;;2.67;;
39518;SDS011;25200;53.394;10.414;2023-04-25T03:15:49;17.60;;;3.42;;
39518;SDS011;25200;53.394;10.414;2023-04-25T03:18:15;13.70;;;2.88;;
39518;SDS011;25200;53.394;10.414;2023-04-25T03:20:41;13.98;;;2.75;;
39518;SDS011;25200;53.394;10.414;2023-04-25T03:23:07;16.23;;;3.10;;
39518;SDS011;25200;53.394;10.414;2023-04-25T03:25:32;14.80;;;3.60;;
39518;SDS011;25200;53.394;10.414;2023-04-25T03:27:58;14.45;;;2.97;;
39518;SDS011;25200;53.394;10.414;2023-04-25T03:30:24;14.70;;;2.92;;
39518;SDS011;25200;53.394;10.414;2023-04-25T03:32:49;15.43;;;3.13;;
39518;SDS011;25200;53.394;10.414;2023-04-25T03:35:15;18.17;;;3.15;;
39518;SDS011;25200;53.394;10.414;2023-04-25T03:37:41;19.25;;;2.80;;
39518;SDS011;25200;53.394;10.414;2023-04-25T03:40:10;15.27;;;2.78;;
39518;SDS011;25200;53.394;10.414;2023-04-25T03:42:36;10.23;;;2.35;;
39518;SDS011;25200;53.394;10.414;2023-04-25T03:45:02;18.98;;;3.03;;
39518;SDS011;25200;53.394;10.414;2023-04-25T03:47:28;14.57;;;2.70;;
39518;SDS011;25200;53.394;10.414;2023-04-25T03:49:53;14.15;;;3.25;;
39518;SDS011;25200;53.394;10.414;2023-04-25T03:52:19;13.73;;;2.85;;
39518;SDS011;25200;53.394;10.414;2023-04-25T03:54:45;14.98;;;2.92;;
39518;SDS011;25200;53.394;10.414;2023-04-25T03:57:11;17.77;;;2.92;;
39518;SDS011;25200;53.394;10.414;2023-04-25T03:59:36;14.10;;;3.20;;
39518;SDS011;25200;53.394;10.414;2023-04-25T04:02:02;19.83;;;3.75;;
39518;SDS011;25200;53.394;10.414;2023-04-25T04:04:28;16.63;;;3.22;;
39518;SDS011;25200;53.394;10.414;2023-04-25T04:06:53;12.93;;;2.58;;
39518;SDS011;25200;53.394;10.414;2023-04-25T04:09:19;23.45;;;3.05;;
39518;SDS011;25200;53.394;10.414;2023-04-25T04:11:45;16.25;;;2.92;;
39518;SDS011;25200;53.394;10.414;2023-04-25T04:14:11;16.83;;;3.63;;
39518;SDS011;25200;53.394;10.414;2023-04-25T04:16:36;15.98;;;2.97;;
39518;SDS011;25200;53.394;10.414;2023-04-25T04:19:02;15.10;;;3.00;;
39518;SDS011;25200;53.394;10.414;2023-04-25T04:21:28;16.67;;;3.30;;
39518;SDS011;25200;53.394;10.414;2023-04-25T04:23:54;13.45;;;3.00;;
39518;SDS011;25200;53.394;10.414;2023-04-25T04:26:20;17.17;;;2.85;;
39518;SDS011;25200;53.394;10.414;2023-04-25T04:28:49;15.45;;;3.08;;
39518;SDS011;25200;53.394;10.414;2023-04-25T04:31:19;13.73;;;3.08;;
39518;SDS011;25200;53.394;10.414;2023-04-25T04:33:46;17.70;;;2.75;;
39518;SDS011;25200;53.394;10.414;2023-04-25T04:36:12;17.52;;;3.47;;
39518;SDS011;25200;53.394;10.414;2023-04-25T04:38:38;20.70;;;3.38;;
39518;SDS011;25200;53.394;10.414;2023-04-25T04:41:06;12.88;;;2.70;;
39518;SDS011;25200;53.394;10.414;2023-04-25T04:43:31;15.75;;;3.00;;
39518;SDS011;25200;53.394;10.414;2023-04-25T04:45:58;12.68;;;2.83;;
39518;SDS011;25200;53.394;10.414;2023-04-25T04:48:25;15.38;;;2.95;;
39518;SDS011;25200;53.394;10.414;2023-04-25T04:50:51;13.90;;;2.92;;
39518;SDS011;25200;53.394;10.414;2023-04-25T04:53:17;16.35;;;3.00;;
39518;SDS011;25200;53.394;10.414;2023-04-25T04:55:43;12.55;;;2.95;;
39518;SDS011;25200;53.394;10.414;2023-04-25T04:58:09;13.30;;;2.85;;
39518;SDS011;25200;53.394;10.414;2023-04-25T05:00:34;14.63;;;3.38;;
39518;SDS011;25200;53.394;10.414;2023-04-25T05:03:00;10.48;;;2.40;;
39518;SDS011;25200;53.394;10.414;2023-04-25T05:05:26;12.20;;;2.85;;
39518;SDS011;25200;53.394;10.414;2023-04-25T05:07:51;16.30;;;2.83;;
39518;SDS011;25200;53.394;10.414;2023-04-25T05:10:18;11.00;;;3.30;;
39518;SDS011;25200;53.394;10.414;2023-04-25T05:12:44;20.15;;;3.88;;
39518;SDS011;25200;53.394;10.414;2023-04-25T05:15:10;10.25;;;2.88;;
39518;SDS011;25200;53.394;10.414;2023-04-25T05:17:36;16.85;;;3.20;;
39518;SDS011;25200;53.394;10.414;2023-04-25T05:20:04;23.48;;;2.85;;
39518;SDS011;25200;53.394;10.414;2023-04-25T05:22:31;13.48;;;2.70;;
39518;SDS011;25200;53.394;10.414;2023-04-25T05:24:56;15.70;;;3.03;;
39518;SDS011;25200;53.394;10.414;2023-04-25T05:27:22;13.45;;;2.63;;
39518;SDS011;25200;53.394;10.414;2023-04-25T05:29:47;14.32;;;2.75;;
39518;SDS011;25200;53.394;10.414;2023-04-25T05:32:13;16.48;;;3.03;;
39518;SDS011;25200;53.394;10.414;2023-04-25T05:34:39;14.82;;;3.30;;
39518;SDS011;25200;53.394;10.414;2023-04-25T05:37:05;17.90;;;3.08;;
39518;SDS011;25200;53.394;10.414;2023-04-25T05:39:31;14.70;;;2.80;;
39518;SDS011;25200;53.394;10.414;2023-04-25T05:41:56;13.18;;;2.97;;
39518;SDS011;25200;53.394;10.414;2023-04-25T05:44:22;15.15;;;2.80;;
39518;SDS011;25200;53.394;10.414;2023-04-25T05:46:48;18.63;;;2.83;;
39518;SDS011;25200;53.394;10.414;2023-04-25T05:49:14;13.40;;;3.20;;
39518;SDS011;25200;53.394;10.414;2023-04-25T05:51:39;12.48;;;3.10;;
39518;SDS011;25200;53.394;10.414;2023-04-25T05:54:05;12.65;;;2.60;;
39518;SDS011;25200;53.394;10.414;2023-04-25T05:56:31;11.43;;;2.80;;
39518;SDS011;25200;53.394;10.414;2023-04-25T05:58:56;13.13;;;2.63;;
39518;SDS011;25200;53.394;10.414;2023-04-25T06:01:22;18.77;;;2.83;;
39518;SDS011;25200;53.394;10.414;2023-04-25T06:03:48;13.98;;;2.90;;
39518;SDS011;25200;53.394;10.414;2023-04-25T06:06:14;15.68;;;3.13;;
39518;SDS011;25200;53.394;10.414;2023-04-25T06:08:40;19.45;;;2.95;;
39518;SDS011;25200;53.394;10.414;2023-04-25T06:11:06;12.05;;;3.10;;
39518;SDS011;25200;53.394;10.414;2023-04-25T06:13:32;14.88;;;2.97;;
39518;SDS011;25200;53.394;10.414;2023-04-25T06:15:58;14.52;;;2.35;;
39518;SDS011;25200;53.394;10.414;2023-04-25T06:18:23;14.55;;;2.95;;
39518;SDS011;25200;53.394;10.414;2023-04-25T06:20:49;13.27;;;2.90;;
39518;SDS011;25200;53.394;10.414;2023-04-25T06:23:15;17.10;;;2.85;;
39518;SDS011;25200;53.394;10.414;2023-04-25T06:25:40;13.23;;;3.05;;
39518;SDS011;25200;53.394;10.414;2023-04-25T06:28:06;20.73;;;2.58;;
39518;SDS011;25200;53.394;10.414;2023-04-25T06:30:32;10.70;;;2.45;;
39518;SDS011;25200;53.394;10.414;2023-04-25T06:32:57;12.07;;;2.25;;
39518;SDS011;25200;53.394;10.414;2023-04-25T06:35:23;16.48;;;2.75;;
39518;SDS011;25200;53.394;10.414;2023-04-25T06:37:49;12.75;;;2.33;;
39518;SDS011;25200;53.394;10.414;2023-04-25T06:40:14;9.98;;;2.92;;
39518;SDS011;25200;53.394;10.414;2023-04-25T06:42:42;11.88;;;2.60;;
39518;SDS011;25200;53.394;10.414;2023-04-25T06:45:08;10.35;;;2.53;;
39518;SDS011;25200;53.394;10.414;2023-04-25T06:47:37;10.52;;;2.83;;
39518;SDS011;25200;53.394;10.414;2023-04-25T06:50:02;8.27;;;2.20;;
39518;SDS011;25200;53.394;10.414;2023-04-25T06:52:29;14.05;;;2.58;;
39518;SDS011;25200;53.394;10.414;2023-04-25T06:54:54;9.43;;;2.53;;
39518;SDS011;25200;53.394;10.414;2023-04-25T06:57:20;12.20;;;2.20;;
39518;SDS011;25200;53.394;10.414;2023-04-25T06:59:46;15.52;;;2.47;;
39518;SDS011;25200;53.394;10.414;2023-04-25T07:02:11;13.40;;;2.35;;
39518;SDS011;25200;53.394;10.414;2023-04-25T07:04:37;9.98;;;1.95;;
39518;SDS011;25200;53.394;10.414;2023-04-25T07:07:02;12.35;;;2.70;;
39518;SDS011;25200;53.394;10.414;2023-04-25T07:09:28;12.43;;;2.58;;
39518;SDS011;25200;53.394;10.414;2023-04-25T07:11:55;14.43;;;2.50;;
39518;SDS011;25200;53.394;10.414;2023-04-25T07:14:21;10.48;;;2.22;;
39518;SDS011;25200;53.394;10.414;2023-04-25T07:16:47;12.50;;;2.63;;
39518;SDS011;25200;53.394;10.414;2023-04-25T07:19:13;11.82;;;2.70;;
39518;SDS011;25200;53.394;10.414;2023-04-25T07:21:39;13.57;;;2.60;;
39518;SDS011;25200;53.394;10.414;2023-04-25T07:24:04;10.52;;;2.47;;
39518;SDS011;25200;53.394;10.414;2023-04-25T07:26:30;8.50;;;2.40;;
39518;SDS011;25200;53.394;10.414;2023-04-25T07:28:56;13.25;;;2.38;;
39518;SDS011;25200;53.394;10.414;2023-04-25T07:31:22;12.57;;;2.47;;
39518;SDS011;25200;53.394;10.414;2023-04-25T07:33:48;10.70;;;2.30;;
39518;SDS011;25200;53.394;10.414;2023-04-25T07:36:14;12.30;;;2.40;;
39518;SDS011;25200;53.394;10.414;2023-04-25T07:38:40;9.90;;;2.30;;
39518;SDS011;25200;53.394;10.414;2023-04-25T07:41:06;10.27;;;2.45;;
39518;SDS011;25200;53.394;10.414;2023-04-25T07:43:31;12.50;;;2.55;;
39518;SDS011;25200;53.394;10.414;2023-04-25T07:45:57;10.30;;;2.13;;
39518;SDS011;25200;53.394;10.414;2023-04-25T07:48:23;8.70;;;2.20;;
39518;SDS011;25200;53.394;10.414;2023-04-25T07:50:49;14.57;;;2.28;;
39518;SDS011;25200;53.394;10.414;2023-04-25T07:53:14;13.45;;;2.50;;
39518;SDS011;25200;53.394;10.414;2023-04-25T07:55:40;11.38;;;2.40;;
39518;SDS011;25200;53.394;10.414;2023-04-25T07:58:06;10.90;;;2.63;;
39518;SDS011;25200;53.394;10.414;2023-04-25T08:00:33;20.48;;;2.67;;
39518;SDS011;25200;53.394;10.414;2023-04-25T08:02:58;9.60;;;2.30;;
39518;SDS011;25200;53.394;10.414;2023-04-25T08:05:24;10.60;;;2.17;;
39518;SDS011;25200;53.394;10.414;2023-04-25T08:07:50;12.25;;;2.45;;
39518;SDS011;25200;53.394;10.414;2023-04-25T08:10:15;10.48;;;2.55;;
39518;SDS011;25200;53.394;10.414;2023-04-25T08:12:41;11.93;;;1.98;;
39518;SDS011;25200;53.394;10.414;2023-04-25T08:15:07;9.40;;;2.17;;
39518;SDS011;25200;53.394;10.414;2023-04-25T08:17:34;8.00;;;2.00;;
39518;SDS011;25200;53.394;10.414;2023-04-25T08:19:59;8.32;;;1.70;;
39518;SDS011;25200;53.394;10.414;2023-04-25T08:22:25;10.32;;;2.22;;
39518;SDS011;25200;53.394;10.414;2023-04-25T08:24:50;12.80;;;2.10;;
39518;SDS011;25200;53.394;10.414;2023-04-25T08:27:17;13.43;;;2.13;;
39518;SDS011;25200;53.394;10.414;2023-04-25T08:29:43;8.55;;;2.53;;
39518;SDS011;25200;53.394;10.414;2023-04-25T08:32:09;10.40;;;2.03;;
39518;SDS011;25200;53.394;10.414;2023-04-25T08:34:35;17.83;;;3.53;;
39518;SDS011;25200;53.394;10.414;2023-04-25T08:37:02;9.27;;;2.05;;
39518;SDS011;25200;53.394;10.414;2023-04-25T08:39:29;7.50;;;1.98;;
39518;SDS011;25200;53.394;10.414;2023-04-25T08:41:55;10.07;;;1.92;;
39518;SDS011;25200;53.394;10.414;2023-04-25T08:44:21;8.18;;;2.13;;
39518;SDS011;25200;53.394;10.414;2023-04-25T08:46:48;9.07;;;2.20;;
39518;SDS011;25200;53.394;10.414;2023-04-25T08:49:15;12.32;;;2.15;;
39518;SDS011;25200;53.394;10.414;2023-04-25T08:51:44;6.15;;;1.80;;
39518;SDS011;25200;53.394;10.414;2023-04-25T08:54:15;11.90;;;2.45;;
39518;SDS011;25200;53.394;10.414;2023-04-25T08:56:43;9.07;;;2.22;;
39518;SDS011;25200;53.394;10.414;2023-04-25T08:59:11;8.65;;;3.08;;
39518;SDS011;25200;53.394;10.414;2023-04-25T09:01:37;13.10;;;1.95;;
39518;SDS011;25200;53.394;10.414;2023-04-25T09:04:03;10.15;;;2.13;;
39518;SDS011;25200;53.394;10.414;2023-04-25T09:06:29;12.85;;;2.50;;
39518;SDS011;25200;53.394;10.414;2023-04-25T09:09:01;9.23;;;1.58;;
39518;SDS011;25200;53.394;10.414;2023-04-25T09:11:28;10.13;;;2.42;;
39518;SDS011;25200;53.394;10.414;2023-04-25T09:14:09;10.48;;;2.38;;
39518;SDS011;25200;53.394;10.414;2023-04-25T09:16:58;8.57;;;2.27;;
39518;SDS011;25200;53.394;10.414;2023-04-25T09:21:55;10.40;;;2.25;;
39518;SDS011;25200;53.394;10.414;2023-04-25T09:27:09;7.40;;;1.80;;
39518;SDS011;25200;53.394;10.414;2023-04-25T09:29:37;6.15;;;1.40;;
39518;SDS011;25200;53.394;10.414;2023-04-25T09:32:24;5.78;;;1.65;;
39518;SDS011;25200;53.394;10.414;2023-04-25T09:34:50;7.20;;;1.63;;
39518;SDS011;25200;53.394;10.414;2023-04-25T09:37:22;7.55;;;1.48;;
39518;SDS011;25200;53.394;10.414;2023-04-25T09:39:58;9.00;;;2.00;;
39518;SDS011;25200;53.394;10.414;2023-04-25T09:42:28;5.97;;;2.15;;
39518;SDS011;25200;53.394;10.414;2023-04-25T09:44:56;5.50;;;1.30;;
39518;SDS011;25200;53.394;10.414;2023-04-25T09:47:23;7.10;;;1.65;;
39518;SDS011;25200;53.394;10.414;2023-04-25T09:49:51;8.05;;;1.67;;
39518;SDS011;25200;53.394;10.414;2023-04-25T09:52:21;4.68;;;1.33;;
39518;SDS011;25200;53.394;10.414;2023-04-25T09:54:49;8.50;;;2.30;;
39518;SDS011;25200;53.394;10.414;2023-04-25T09:59:49;7.65;;;1.60;;
39518;SDS011;25200;53.394;10.414;2023-04-25T10:02:17;5.45;;;1.15;;
39518;SDS011;25200;53.394;10.414;2023-04-25T10:04:50;7.78;;;1.38;;
39518;SDS011;25200;53.394;10.414;2023-04-25T10:07:19;8.27;;;1.42;;
39518;SDS011;25200;53.394;10.414;2023-04-25T10:09:48;7.22;;;1.73;;
39518;SDS011;25200;53.394;10.414;2023-04-25T10:12:17;4.45;;;1.13;;
39518;SDS011;25200;53.394;10.414;2023-04-25T10:14:43;6.20;;;2.00;;
39518;SDS011;25200;53.394;10.414;2023-04-25T10:17:10;9.57;;;1.58;;
39518;SDS011;25200;53.394;10.414;2023-04-25T10:19:38;5.65;;;1.90;;
39518;SDS011;25200;53.394;10.414;2023-04-25T10:22:08;12.00;;;3.40;;
39518;SDS011;25200;53.394;10.414;2023-04-25T10:27:05;7.68;;;1.98;;
39518;SDS011;25200;53.394;10.414;2023-04-25T10:29:32;5.25;;;1.67;;
39518;SDS011;25200;53.394;10.414;2023-04-25T10:31:58;4.15;;;1.50;;
39518;SDS011;25200;53.394;10.414;2023-04-25T10:34:24;4.45;;;1.23;;
39518;SDS011;25200;53.394;10.414;2023-04-25T10:37:03;6.75;;;1.80;;
39518;SDS011;25200;53.394;10.414;2023-04-25T10:39:29;4.80;;;1.85;;
39518;SDS011;25200;53.394;10.414;2023-04-25T10:41:58;4.28;;;1.52;;
39518;SDS011;25200;53.394;10.414;2023-04-25T10:44:27;8.35;;;1.70;;
39518;SDS011;25200;53.394;10.414;2023-04-25T10:47:03;8.30;;;1.92;;
39518;SDS011;25200;53.394;10.414;2023-04-25T10:49:38;6.05;;;1.75;;
39518;SDS011;25200;53.394;10.414;2023-04-25T10:54:54;6.32;;;1.83;;
39518;SDS011;25200;53.394;10.414;2023-04-25T11:02:51;7.45;;;1.52;;
39518;SDS011;25200;53.394;10.414;2023-04-25T11:08:03;6.95;;;1.38;;
39518;SDS011;25200;53.394;10.414;2023-04-25T11:10:36;6.90;;;1.50;;
39518;SDS011;25200;53.394;10.414;2023-04-25T11:13:02;5.88;;;1.48;;
39518;SDS011;25200;53.394;10.414;2023-04-25T11:15:28;5.82;;;1.35;;
39518;SDS011;25200;53.394;10.414;2023-04-25T11:17:54;6.50;;;1.30;;
39518;SDS011;25200;53.394;10.414;2023-04-25T11:20:20;8.35;;;1.70;;
39518;SDS011;25200;53.394;10.414;2023-04-25T11:22:47;6.35;;;1.50;;
39518;SDS011;25200;53.394;10.414;2023-04-25T11:25:14;6.97;;;2.47;;
39518;SDS011;25200;53.394;10.414;2023-04-25T11:27:54;10.82;;;2.35;;
39518;SDS011;25200;53.394;10.414;2023-04-25T11:30:22;7.55;;;2.05;;
39518;SDS011;25200;53.394;10.414;2023-04-25T11:32:49;10.20;;;3.65;;
39518;SDS011;25200;53.394;10.414;2023-04-25T11:35:16;7.57;;;2.65;;
39518;SDS011;25200;53.394;10.414;2023-04-25T11:37:43;7.40;;;1.83;;
39518;SDS011;25200;53.394;10.414;2023-04-25T11:40:10;5.68;;;1.70;;
39518;SDS011;25200;53.394;10.414;2023-04-25T11:42:42;13.50;;;1.70;;
39518;SDS011;25200;53.394;10.414;2023-04-25T11:45:09;4.72;;;1.27;;
39518;SDS011;25200;53.394;10.414;2023-04-25T11:47:35;5.90;;;1.90;;
39518;SDS011;25200;53.394;10.414;2023-04-25T11:50:02;7.38;;;1.42;;
39518;SDS011;25200;53.394;10.414;2023-04-25T11:52:39;6.45;;;1.25;;
39518;SDS011;25200;53.394;10.414;2023-04-25T11:57:36;8.25;;;1.50;;
39518;SDS011;25200;53.394;10.414;2023-04-25T12:02:39;8.88;;;1.50;;
39518;SDS011;25200;53.394;10.414;2023-04-25T12:05:06;8.63;;;2.03;;
39518;SDS011;25200;53.394;10.414;2023-04-25T12:07:36;6.80;;;1.40;;
39518;SDS011;25200;53.394;10.414;2023-04-25T12:10:09;4.57;;;1.13;;
39518;SDS011;25200;53.394;10.414;2023-04-25T12:12:37;4.72;;;1.23;;
39518;SDS011;25200;53.394;10.414;2023-04-25T12:17:40;3.42;;;0.90;;
39518;SDS011;25200;53.394;10.414;2023-04-25T12:20:11;3.75;;;0.70;;
39518;SDS011;25200;53.394;10.414;2023-04-25T12:22:40;2.70;;;0.70;;
39518;SDS011;25200;53.394;10.414;2023-04-25T12:25:11;3.30;;;0.85;;
39518;SDS011;25200;53.394;10.414;2023-04-25T12:27:38;3.47;;;0.65;;
39518;SDS011;25200;53.394;10.414;2023-04-25T12:30:08;5.13;;;1.75;;
39518;SDS011;25200;53.394;10.414;2023-04-25T12:32:35;2.45;;;0.88;;
39518;SDS011;25200;53.394;10.414;2023-04-25T12:35:02;4.63;;;1.60;;
39518;SDS011;25200;53.394;10.414;2023-04-25T12:37:29;3.33;;;1.10;;
39518;SDS011;25200;53.394;10.414;2023-04-25T12:39:55;4.32;;;1.42;;
39518;SDS011;25200;53.394;10.414;2023-04-25T12:42:21;4.55;;;1.40;;
39518;SDS011;25200;53.394;10.414;2023-04-25T12:44:47;8.10;;;2.78;;
39518;SDS011;25200;53.394;10.414;2023-04-25T12:47:12;8.30;;;2.13;;
39518;SDS011;25200;53.394;10.414;2023-04-25T12:49:38;4.32;;;1.40;;
39518;SDS011;25200;53.394;10.414;2023-04-25T12:52:04;5.63;;;1.25;;
39518;SDS011;25200;53.394;10.414;2023-04-25T12:54:30;6.72;;;1.20;;
39518;SDS011;25200;53.394;10.414;2023-04-25T12:56:56;6.57;;;1.08;;
39518;SDS011;25200;53.394;10.414;2023-04-25T12:59:22;5.82;;;1.17;;
39518;SDS011;25200;53.394;10.414;2023-04-25T13:01:48;5.57;;;1.13;;
39518;SDS011;25200;53.394;10.414;2023-04-25T13:04:14;6.20;;;1.42;;
39518;SDS011;25200;53.394;10.414;2023-04-25T13:06:40;7.20;;;1.30;;
39518;SDS011;25200;53.394;10.414;2023-04-25T13:09:06;6.43;;;1.38;;
39518;SDS011;25200;53.394;10.414;2023-04-25T13:11:32;4.95;;;1.15;;
39518;SDS011;25200;53.394;10.414;2023-04-25T13:13:57;5.25;;;1.27;;
39518;SDS011;25200;53.394;10.414;2023-04-25T13:16:23;7.55;;;2.30;;
39518;SDS011;25200;53.394;10.414;2023-04-25T13:18:49;3.80;;;1.17;;
39518;SDS011;25200;53.394;10.414;2023-04-25T13:21:14;5.10;;;1.60;;
39518;SDS011;25200;53.394;10.414;2023-04-25T13:23:40;7.85;;;1.50;;
39518;SDS011;25200;53.394;10.414;2023-04-25T13:26:11;6.50;;;1.50;;
39518;SDS011;25200;53.394;10.414;2023-04-25T13:28:36;5.05;;;1.33;;
39518;SDS011;25200;53.394;10.414;2023-04-25T13:31:02;5.90;;;1.17;;
39518;SDS011;25200;53.394;10.414;2023-04-25T13:33:28;5.82;;;1.60;;
39518;SDS011;25200;53.394;10.414;2023-04-25T13:35:54;5.85;;;1.48;;
39518;SDS011;25200;53.394;10.414;2023-04-25T13:38:21;7.22;;;1.60;;
39518;SDS011;25200;53.394;10.414;2023-04-25T13:40:47;5.93;;;1.75;;
39518;SDS011;25200;53.394;10.414;2023-04-25T13:43:14;5.40;;;1.50;;
39518;SDS011;25200;53.394;10.414;2023-04-25T13:45:40;4.65;;;1.25;;
39518;SDS011;25200;53.394;10.414;2023-04-25T13:48:06;7.32;;;1.30;;
39518;SDS011;25200;53.394;10.414;2023-04-25T13:50:31;5.30;;;1.58;;
39518;SDS011;25200;53.394;10.414;2023-04-25T13:52:57;3.95;;;1.35;;
39518;SDS011;25200;53.394;10.414;2023-04-25T13:55:23;6.30;;;1.52;;
39518;SDS011;25200;53.394;10.414;2023-04-25T13:57:48;5.45;;;1.55;;
39518;SDS011;25200;53.394;10.414;2023-04-25T14:00:14;7.55;;;1.52;;
39518;SDS011;25200;53.394;10.414;2023-04-25T14:02:40;5.53;;;1.38;;
39518;SDS011;25200;53.394;10.414;2023-04-25T14:05:06;8.75;;;1.40;;
39518;SDS011;25200;53.394;10.414;2023-04-25T14:07:36;7.07;;;1.35;;
39518;SDS011;25200;53.394;10.414;2023-04-25T14:10:02;5.28;;;1.35;;
39518;SDS011;25200;53.394;10.414;2023-04-25T14:12:29;8.43;;;1.50;;
39518;SDS011;25200;53.394;10.414;2023-04-25T14:14:55;8.02;;;1.67;;
39518;SDS011;25200;53.394;10.414;2023-04-25T14:17:20;10.50;;;1.60;;
39518;SDS011;25200;53.394;10.414;2023-04-25T14:19:46;7.07;;;1.55;;
39518;SDS011;25200;53.394;10.414;2023-04-25T14:22:13;6.80;;;1.20;;
39518;SDS011;25200;53.394;10.414;2023-04-25T14:24:42;6.47;;;1.40;;
39518;SDS011;25200;53.394;10.414;2023-04-25T14:27:08;5.90;;;1.55;;
39518;SDS011;25200;53.394;10.414;2023-04-25T14:29:34;16.13;;;1.60;;
39518;SDS011;25200;53.394;10.414;2023-04-25T14:32:00;7.75;;;1.38;;
39518;SDS011;25200;53.394;10.414;2023-04-25T14:34:25;4.43;;;1.13;;
39518;SDS011;25200;53.394;10.414;2023-04-25T14:36:51;4.40;;;1.20;;
39518;SDS011;25200;53.394;10.414;2023-04-25T14:39:17;5.45;;;1.10;;
39518;SDS011;25200;53.394;10.414;2023-04-25T14:41:43;5.13;;;1.42;;
39518;SDS011;25200;53.394;10.414;2023-04-25T14:44:09;8.13;;;1.45;;
39518;SDS011;25200;53.394;10.414;2023-04-25T14:46:35;5.07;;;1.42;;
39518;SDS011;25200;53.394;10.414;2023-04-25T14:49:02;4.90;;;1.08;;
39518;SDS011;25200;53.394;10.414;2023-04-25T14:51:28;6.75;;;1.42;;
39518;SDS011;25200;53.394;10.414;2023-04-25T14:53:54;8.35;;;1.80;;